Time;durP1;ratioP1;P1;durP2;ratioP2;P2;SDS_P1;SDS_P2;PMS_P1;PMS_P2;Temp;Humidity;BMP_temperature;BMP_pressure;BME280_temperature;BME280_humidity;BME280_pressure;Samples;Min_cycle;Max_cycle;Signal;HPM_P1;HPM_P2
2022/03/10 00:02:22;;;;;;;27.83;3.90;;;;;;;;;;5009987;28;20038;-34
2022/03/10 00:04:49;;;;;;;25.98;3.55;;;;;;;;;;5023191;28;20112;-34
2022/03/10 00:07:16;;;;;;;37.22;3.97;;;;;;;;;;5012489;28;20062;-35
2022/03/10 00:09:43;;;;;;;38.63;4.25;;;;;;;;;;5018867;28;20099;-35
2022/03/10 00:12:12;;;;;;;40.05;4.30;;;;;;;;;;5016532;28;20132;-35
2022/03/10 00:14:40;;;;;;;29.77;3.92;;;;;;;;;;5018731;28;20026;-34
2022/03/10 00:17:07;;;;;;;27.50;3.75;;;;;;;;;;5018919;28;20022;-35
2022/03/10 00:19:34;;;;;;;34.40;3.88;;;;;;;;;;5018385;28;20025;-35
2022/03/10 00:22:02;;;;;;;31.58;4.45;;;;;;;;;;5019769;28;20128;-34
2022/03/10 00:24:29;;;;;;;30.63;3.78;;;;;;;;;;5019565;28;20030;-36
2022/03/10 00:26:56;;;;;;;27.30;4.35;;;;;;;;;;5018907;28;20022;-36
2022/03/10 00:29:23;;;;;;;26.95;4.50;;;;;;;;;;5016410;28;20073;-35
2022/03/10 00:31:50;;;;;;;32.67;4.28;;;;;;;;;;5019105;28;20037;-35
2022/03/10 00:34:17;;;;;;;30.13;4.35;;;;;;;;;;5019775;28;20100;-32
2022/03/10 00:36:45;;;;;;;28.42;4.10;;;;;;;;;;5018200;28;20029;-36
2022/03/10 00:39:13;;;;;;;32.58;4.93;;;;;;;;;;5018030;28;20025;-33
2022/03/10 00:41:40;;;;;;;28.05;4.65;;;;;;;;;;5018988;28;20467;-34
2022/03/10 00:44:07;;;;;;;34.50;5.88;;;;;;;;;;5018707;28;20064;-33
2022/03/10 00:46:35;;;;;;;37.95;4.70;;;;;;;;;;5019812;28;20050;-33
2022/03/10 00:49:02;;;;;;;38.78;5.60;;;;;;;;;;5016854;28;20740;-30
2022/03/10 00:51:29;;;;;;;34.85;5.72;;;;;;;;;;5018072;28;20543;-38
2022/03/10 00:53:56;;;;;;;45.30;8.25;;;;;;;;;;5019556;28;20029;-32
2022/03/10 00:56:23;;;;;;;51.72;8.05;;;;;;;;;;5028166;28;20040;-34
2022/03/10 00:58:50;;;;;;;58.78;7.88;;;;;;;;;;5028862;28;20029;-33
2022/03/10 01:01:18;;;;;;;54.05;8.82;;;;;;;;;;5029133;28;20022;-34
2022/03/10 01:03:45;;;;;;;59.90;12.75;;;;;;;;;;5029777;28;20029;-33
2022/03/10 01:06:13;;;;;;;68.75;14.88;;;;;;;;;;5028631;28;20509;-34
2022/03/10 01:08:41;;;;;;;114.55;23.00;;;;;;;;;;5030152;28;20483;-34
2022/03/10 01:11:08;;;;;;;149.15;36.42;;;;;;;;;;5029917;28;20042;-34
2022/03/10 01:13:35;;;;;;;299.20;66.30;;;;;;;;;;5029577;28;20029;-35
2022/03/10 01:16:03;;;;;;;407.85;95.03;;;;;;;;;;5029375;28;20064;-35
2022/03/10 01:18:30;;;;;;;459.83;106.80;;;;;;;;;;5030128;28;20110;-35
2022/03/10 01:20:58;;;;;;;441.13;106.68;;;;;;;;;;5028707;28;20028;-34
2022/03/10 01:23:25;;;;;;;416.30;106.38;;;;;;;;;;5030259;28;20091;-34
2022/03/10 01:25:52;;;;;;;396.90;100.05;;;;;;;;;;5029568;28;20087;-35
2022/03/10 01:28:19;;;;;;;392.98;96.53;;;;;;;;;;5028912;28;20116;-34
2022/03/10 01:30:46;;;;;;;346.40;87.70;;;;;;;;;;5028935;28;20038;-35
2022/03/10 01:33:13;;;;;;;348.90;85.25;;;;;;;;;;5030121;28;20104;-35
2022/03/10 01:35:40;;;;;;;314.70;80.35;;;;;;;;;;5029155;28;20034;-35
2022/03/10 01:38:07;;;;;;;313.90;78.50;;;;;;;;;;5027723;28;20395;-34
2022/03/10 01:40:34;;;;;;;303.17;75.88;;;;;;;;;;5030495;28;20051;-35
2022/03/10 01:43:01;;;;;;;266.42;71.60;;;;;;;;;;5029307;28;20037;-35
2022/03/10 01:45:28;;;;;;;292.80;74.47;;;;;;;;;;5029840;28;20112;-35
2022/03/10 01:47:55;;;;;;;281.73;68.75;;;;;;;;;;5029924;28;20045;-35
2022/03/10 01:50:22;;;;;;;259.05;69.38;;;;;;;;;;5029073;28;20499;-36
2022/03/10 01:52:49;;;;;;;276.23;67.55;;;;;;;;;;5030334;28;20088;-35
2022/03/10 01:55:16;;;;;;;268.50;68.53;;;;;;;;;;5015655;28;20046;-35
2022/03/10 01:57:43;;;;;;;244.70;63.63;;;;;;;;;;5025649;28;20037;-35
2022/03/10 02:00:11;;;;;;;246.90;64.20;;;;;;;;;;5023851;28;20058;-35
2022/03/10 02:02:38;;;;;;;228.38;60.38;;;;;;;;;;5020264;28;20080;-34
2022/03/10 02:05:06;;;;;;;236.27;61.72;;;;;;;;;;5029414;28;20064;-35
2022/03/10 02:10:18;;;;;;;220.27;57.38;;;;;;;;;;5032795;28;20107;-34
2022/03/10 02:12:46;;;;;;;209.00;56.88;;;;;;;;;;5032426;28;20072;-34
2022/03/10 02:18:21;;;;;;;196.73;54.55;;;;;;;;;;5033014;28;20040;-33
2022/03/10 02:20:48;;;;;;;187.63;52.22;;;;;;;;;;5033354;28;20112;-34
2022/03/10 02:23:16;;;;;;;176.85;49.70;;;;;;;;;;5037913;28;20025;-34
2022/03/10 02:25:43;;;;;;;180.43;50.40;;;;;;;;;;5039833;28;20052;-35
2022/03/10 02:28:10;;;;;;;194.15;50.70;;;;;;;;;;5031748;28;20115;-33
2022/03/10 02:30:38;;;;;;;191.38;51.65;;;;;;;;;;5031785;28;20029;-34
2022/03/10 02:33:05;;;;;;;185.82;49.85;;;;;;;;;;5032998;28;20034;-34
2022/03/10 02:35:32;;;;;;;175.52;48.70;;;;;;;;;;5032413;28;20030;-33
2022/03/10 02:37:59;;;;;;;175.32;48.50;;;;;;;;;;5031035;28;20033;-32
2022/03/10 02:40:27;;;;;;;160.10;45.22;;;;;;;;;;5032781;28;20037;-32
2022/03/10 02:42:54;;;;;;;165.40;46.28;;;;;;;;;;5033085;28;20030;-33
2022/03/10 02:45:22;;;;;;;147.55;42.17;;;;;;;;;;5033138;28;20022;-33
2022/03/10 02:47:49;;;;;;;150.70;41.97;;;;;;;;;;5032466;28;20127;-33
2022/03/10 02:50:15;;;;;;;157.10;43.45;;;;;;;;;;5033648;28;20036;-33
2022/03/10 02:52:44;;;;;;;150.55;43.28;;;;;;;;;;5031354;28;20407;-33
2022/03/10 02:55:11;;;;;;;150.32;44.08;;;;;;;;;;5032802;28;20041;-33
2022/03/10 02:57:38;;;;;;;146.80;44.20;;;;;;;;;;5033639;28;20483;-33
2022/03/10 03:00:06;;;;;;;134.93;40.80;;;;;;;;;;5033041;28;20053;-33
2022/03/10 03:02:33;;;;;;;131.20;39.72;;;;;;;;;;5033576;28;20025;-33
2022/03/10 03:05:00;;;;;;;140.95;41.90;;;;;;;;;;5032438;28;20103;-35
2022/03/10 03:07:27;;;;;;;132.63;39.50;;;;;;;;;;5033175;28;20032;-34
2022/03/10 03:09:54;;;;;;;132.43;39.45;;;;;;;;;;5033142;28;20021;-34
2022/03/10 03:12:21;;;;;;;125.35;38.83;;;;;;;;;;5032240;28;20037;-34
2022/03/10 03:14:48;;;;;;;127.95;37.83;;;;;;;;;;5033332;28;20030;-35
2022/03/10 03:17:14;;;;;;;130.60;38.33;;;;;;;;;;5032736;28;20052;-34
2022/03/10 03:19:42;;;;;;;114.63;35.92;;;;;;;;;;5033001;28;20032;-35
2022/03/10 03:22:10;;;;;;;123.05;37.13;;;;;;;;;;5033300;28;20527;-35
2022/03/10 03:24:37;;;;;;;119.30;37.28;;;;;;;;;;5032911;28;20026;-34
2022/03/10 03:27:04;;;;;;;117.50;36.83;;;;;;;;;;5032333;28;20042;-34
2022/03/10 03:29:31;;;;;;;110.63;35.25;;;;;;;;;;5031548;28;20034;-34
2022/03/10 03:31:58;;;;;;;113.60;34.45;;;;;;;;;;5032267;28;20044;-34
2022/03/10 03:34:25;;;;;;;119.03;35.75;;;;;;;;;;5033119;28;20026;-35
2022/03/10 03:36:52;;;;;;;107.40;32.50;;;;;;;;;;5031997;28;20040;-34
2022/03/10 03:39:19;;;;;;;108.10;33.88;;;;;;;;;;5032806;28;20061;-34
2022/03/10 03:41:46;;;;;;;95.65;33.03;;;;;;;;;;5032095;28;20037;-34
2022/03/10 03:44:13;;;;;;;97.45;31.77;;;;;;;;;;5029840;28;20113;-35
2022/03/10 03:46:41;;;;;;;101.05;32.72;;;;;;;;;;5030649;28;20496;-34
2022/03/10 03:49:11;;;;;;;99.63;32.10;;;;;;;;;;5032008;28;20025;-35
2022/03/10 03:51:38;;;;;;;103.95;33.58;;;;;;;;;;5032282;28;20091;-34
2022/03/10 03:54:06;;;;;;;102.97;33.92;;;;;;;;;;5031825;28;20087;-34
2022/03/10 03:56:33;;;;;;;96.07;30.23;;;;;;;;;;5032410;28;20116;-34
2022/03/10 03:59:00;;;;;;;94.80;31.08;;;;;;;;;;5031628;28;20022;-35
2022/03/10 04:01:27;;;;;;;95.22;31.50;;;;;;;;;;5032519;28;20028;-35
2022/03/10 04:03:54;;;;;;;95.95;29.38;;;;;;;;;;5031902;28;20376;-34
2022/03/10 04:06:21;;;;;;;92.47;29.88;;;;;;;;;;5031736;28;20022;-35
2022/03/10 04:08:48;;;;;;;92.82;28.27;;;;;;;;;;5031270;28;20029;-34
2022/03/10 04:11:15;;;;;;;84.65;29.42;;;;;;;;;;5032250;28;20053;-34
2022/03/10 04:13:42;;;;;;;84.53;28.30;;;;;;;;;;5031971;28;20033;-34
2022/03/10 04:16:09;;;;;;;78.55;27.27;;;;;;;;;;5031268;28;20099;-35
2022/03/10 04:18:36;;;;;;;90.43;28.85;;;;;;;;;;5031606;28;20032;-34
2022/03/10 04:21:03;;;;;;;76.72;27.40;;;;;;;;;;5031166;28;20034;-34
2022/03/10 04:23:31;;;;;;;78.15;26.65;;;;;;;;;;5032211;28;20491;-34
2022/03/10 04:25:58;;;;;;;77.68;27.77;;;;;;;;;;5031632;28;20030;-34
2022/03/10 04:28:25;;;;;;;82.22;26.70;;;;;;;;;;5031366;28;20042;-34
2022/03/10 04:30:52;;;;;;;79.25;25.60;;;;;;;;;;5031973;28;20041;-34
2022/03/10 04:33:19;;;;;;;77.40;26.05;;;;;;;;;;5031033;28;20038;-34
2022/03/10 04:35:46;;;;;;;76.65;26.50;;;;;;;;;;5031564;28;20483;-35
2022/03/10 04:38:13;;;;;;;73.15;25.17;;;;;;;;;;5031470;28;20029;-34
2022/03/10 04:40:40;;;;;;;73.20;25.35;;;;;;;;;;5031235;28;20025;-34
2022/03/10 04:43:07;;;;;;;73.85;25.27;;;;;;;;;;5031319;28;20111;-35
2022/03/10 04:45:34;;;;;;;73.65;24.83;;;;;;;;;;5031327;28;20025;-35
2022/03/10 04:48:03;;;;;;;75.35;25.58;;;;;;;;;;5030986;28;20435;-34
2022/03/10 04:50:30;;;;;;;80.15;25.85;;;;;;;;;;5031381;28;20036;-32
2022/03/10 04:52:57;;;;;;;68.57;23.33;;;;;;;;;;5030786;28;20040;-32
2022/03/10 04:55:24;;;;;;;64.70;23.02;;;;;;;;;;5031616;28;20034;-33
2022/03/10 04:57:51;;;;;;;66.20;23.23;;;;;;;;;;5031006;28;20027;-32
2022/03/10 05:00:19;;;;;;;61.03;22.85;;;;;;;;;;5031340;28;20037;-33
2022/03/10 05:02:47;;;;;;;61.97;20.95;;;;;;;;;;5031411;28;20044;-35
2022/03/10 05:05:14;;;;;;;57.97;21.83;;;;;;;;;;5030741;28;20115;-34
2022/03/10 05:07:42;;;;;;;61.80;23.20;;;;;;;;;;5031605;28;20018;-34
2022/03/10 05:10:10;;;;;;;56.85;20.95;;;;;;;;;;5031401;28;20509;-34
2022/03/10 05:12:47;;;;;;;65.63;22.63;;;;;;;;;;5030572;28;20034;-34
2022/03/10 05:15:19;;;;;;;55.22;20.80;;;;;;;;;;5030339;28;20055;-34
2022/03/10 05:17:46;;;;;;;54.78;20.30;;;;;;;;;;5031047;28;20034;-34
2022/03/10 05:20:13;;;;;;;57.25;19.02;;;;;;;;;;5031224;28;20027;-34
2022/03/10 05:22:45;;;;;;;55.90;20.02;;;;;;;;;;5030360;28;20025;-34
2022/03/10 05:25:12;;;;;;;53.83;20.38;;;;;;;;;;5031338;28;20033;-34
2022/03/10 05:27:39;;;;;;;58.95;21.08;;;;;;;;;;5030652;28;20028;-34
2022/03/10 05:30:07;;;;;;;52.25;18.70;;;;;;;;;;5034804;28;20095;-34
2022/03/10 05:32:34;;;;;;;55.80;19.73;;;;;;;;;;5035092;28;20043;-33
2022/03/10 05:35:03;;;;;;;56.50;19.52;;;;;;;;;;5034172;28;20475;-34
2022/03/10 05:37:30;;;;;;;50.75;17.15;;;;;;;;;;5035039;28;20036;-33
2022/03/10 05:39:57;;;;;;;49.58;18.27;;;;;;;;;;5034338;28;20078;-33
2022/03/10 05:42:24;;;;;;;47.90;17.58;;;;;;;;;;5034854;28;20068;-33
2022/03/10 05:44:51;;;;;;;47.83;18.17;;;;;;;;;;5033795;28;20522;-33
2022/03/10 05:47:18;;;;;;;50.85;17.77;;;;;;;;;;5034735;28;20381;-33
2022/03/10 05:49:45;;;;;;;50.28;18.35;;;;;;;;;;5034102;28;20029;-33
2022/03/10 05:52:12;;;;;;;49.83;18.60;;;;;;;;;;5034512;28;20037;-33
2022/03/10 05:54:39;;;;;;;45.25;18.10;;;;;;;;;;5033854;28;20052;-33
2022/03/10 05:57:06;;;;;;;47.38;17.73;;;;;;;;;;5034793;28;20040;-33
2022/03/10 05:59:33;;;;;;;50.00;17.58;;;;;;;;;;5034214;28;20026;-33
2022/03/10 06:02:00;;;;;;;47.33;17.83;;;;;;;;;;5034473;28;20025;-33
2022/03/10 06:04:27;;;;;;;44.75;16.55;;;;;;;;;;5034740;28;20496;-33
2022/03/10 06:06:54;;;;;;;44.47;16.48;;;;;;;;;;5033680;28;20099;-33
2022/03/10 06:09:21;;;;;;;44.17;16.75;;;;;;;;;;5034574;28;20033;-33
2022/03/10 06:11:48;;;;;;;41.20;15.70;;;;;;;;;;5033861;28;20033;-34
2022/03/10 06:14:17;;;;;;;37.53;14.65;;;;;;;;;;5034096;28;20022;-34
2022/03/10 06:16:45;;;;;;;42.80;16.10;;;;;;;;;;5034372;28;20032;-34
2022/03/10 06:19:12;;;;;;;35.40;15.05;;;;;;;;;;5033461;28;20030;-34
2022/03/10 06:21:39;;;;;;;39.67;15.43;;;;;;;;;;5033629;28;20037;-34
2022/03/10 06:24:06;;;;;;;38.47;14.48;;;;;;;;;;5033974;28;20021;-34
2022/03/10 06:26:34;;;;;;;38.72;14.40;;;;;;;;;;5034033;28;20521;-34
2022/03/10 06:29:01;;;;;;;37.38;14.77;;;;;;;;;;5033112;28;20052;-34
2022/03/10 06:31:28;;;;;;;34.42;13.77;;;;;;;;;;5034034;28;20112;-34
2022/03/10 06:33:55;;;;;;;35.38;14.25;;;;;;;;;;5034023;28;20528;-34
2022/03/10 06:36:22;;;;;;;35.25;13.43;;;;;;;;;;5033833;28;20026;-34
2022/03/10 06:38:49;;;;;;;34.03;13.23;;;;;;;;;;5034049;28;20056;-34
2022/03/10 06:41:16;;;;;;;38.17;14.73;;;;;;;;;;5160586;23;20463;-32
2022/03/10 06:43:43;;;;;;;35.50;13.73;;;;;;;;;;5014641;28;20105;-33
2022/03/10 06:46:10;;;;;;;33.70;13.85;;;;;;;;;;4996266;28;20121;-32
2022/03/10 06:48:37;;;;;;;34.70;13.85;;;;;;;;;;5014521;28;20392;-32
2022/03/10 06:51:05;;;;;;;35.92;14.70;;;;;;;;;;5013197;28;20038;-33
2022/03/10 06:53:31;;;;;;;35.17;13.35;;;;;;;;;;5014478;28;20400;-33
2022/03/10 06:55:58;;;;;;;30.45;11.85;;;;;;;;;;5014404;28;20026;-34
2022/03/10 06:58:26;;;;;;;33.30;13.18;;;;;;;;;;5013171;28;20079;-33
2022/03/10 07:00:53;;;;;;;29.67;12.30;;;;;;;;;;5013754;28;20041;-33
2022/03/10 07:03:21;;;;;;;30.92;12.73;;;;;;;;;;5014170;28;20038;-32
2022/03/10 07:05:48;;;;;;;30.75;12.55;;;;;;;;;;5013521;28;20034;-33
2022/03/10 07:08:15;;;;;;;31.52;12.48;;;;;;;;;;5014093;28;20030;-32
2022/03/10 07:10:42;;;;;;;28.63;11.40;;;;;;;;;;5013133;28;20037;-32
2022/03/10 07:13:09;;;;;;;33.10;12.27;;;;;;;;;;5013969;28;20046;-33
2022/03/10 07:15:36;;;;;;;28.25;11.57;;;;;;;;;;5013738;28;20034;-34
2022/03/10 07:18:04;;;;;;;25.38;11.23;;;;;;;;;;5013470;28;20157;-34
2022/03/10 07:20:32;;;;;;;23.85;10.77;;;;;;;;;;5013170;28;20069;-34
2022/03/10 07:22:59;;;;;;;28.10;10.75;;;;;;;;;;5014064;28;20330;-34
2022/03/10 07:25:26;;;;;;;26.00;10.85;;;;;;;;;;5013578;28;20454;-34
2022/03/10 07:27:53;;;;;;;25.98;11.30;;;;;;;;;;5013424;28;20049;-34
2022/03/10 07:30:20;;;;;;;25.67;10.57;;;;;;;;;;5013267;28;20030;-34
2022/03/10 07:32:47;;;;;;;29.90;12.10;;;;;;;;;;5013448;28;20570;-34
2022/03/10 07:35:14;;;;;;;25.08;10.55;;;;;;;;;;5013209;28;20411;-34
2022/03/10 07:37:41;;;;;;;25.92;11.10;;;;;;;;;;5013104;28;20100;-34
2022/03/10 07:40:08;;;;;;;24.70;10.23;;;;;;;;;;5012911;28;20036;-34
2022/03/10 07:42:35;;;;;;;20.63;9.52;;;;;;;;;;5013337;28;20065;-33
2022/03/10 07:45:02;;;;;;;24.83;10.18;;;;;;;;;;5012902;28;20439;-33
2022/03/10 07:47:29;;;;;;;25.77;9.77;;;;;;;;;;5013146;28;20033;-34
2022/03/10 07:49:57;;;;;;;22.02;8.60;;;;;;;;;;5013058;28;20053;-34
2022/03/10 07:52:24;;;;;;;24.40;9.95;;;;;;;;;;5012590;28;20426;-34
2022/03/10 07:54:51;;;;;;;23.92;9.70;;;;;;;;;;5012638;28;20542;-33
2022/03/10 07:57:18;;;;;;;24.83;10.15;;;;;;;;;;5013095;28;20026;-34
2022/03/10 07:59:45;;;;;;;26.35;10.60;;;;;;;;;;5013052;28;20033;-34
2022/03/10 08:02:12;;;;;;;21.35;9.73;;;;;;;;;;5012998;28;20030;-34
2022/03/10 08:04:39;;;;;;;25.13;9.27;;;;;;;;;;5012454;28;20042;-34
2022/03/10 08:07:07;;;;;;;19.30;8.65;;;;;;;;;;5012809;28;20037;-33
2022/03/10 08:09:34;;;;;;;22.20;8.57;;;;;;;;;;5012872;28;20030;-34
2022/03/10 08:12:02;;;;;;;18.50;8.85;;;;;;;;;;5012720;28;20041;-34
2022/03/10 08:14:28;;;;;;;21.73;8.90;;;;;;;;;;4994709;28;20053;-34
2022/03/10 08:16:55;;;;;;;17.30;8.15;;;;;;;;;;5012218;28;20145;-34
2022/03/10 08:19:23;;;;;;;23.05;8.63;;;;;;;;;;5012980;28;20030;-34
2022/03/10 08:21:51;;;;;;;18.73;8.38;;;;;;;;;;5012672;28;20448;-34
2022/03/10 08:24:18;;;;;;;20.13;8.45;;;;;;;;;;5012250;28;20033;-34
2022/03/10 08:26:45;;;;;;;17.92;8.50;;;;;;;;;;5012901;28;20087;-34
2022/03/10 08:29:12;;;;;;;19.98;8.43;;;;;;;;;;5012025;28;20619;-34
2022/03/10 08:31:39;;;;;;;19.75;8.25;;;;;;;;;;5012546;28;20038;-34
2022/03/10 08:34:06;;;;;;;20.02;8.23;;;;;;;;;;5012343;28;20034;-34
2022/03/10 08:36:34;;;;;;;20.27;8.52;;;;;;;;;;5012175;28;20109;-34
2022/03/10 08:39:01;;;;;;;15.77;7.35;;;;;;;;;;5012431;28;20049;-34
2022/03/10 08:41:28;;;;;;;16.05;7.80;;;;;;;;;;5011712;28;20072;-34
2022/03/10 08:43:55;;;;;;;17.65;8.38;;;;;;;;;;5012393;28;20454;-34
2022/03/10 08:46:22;;;;;;;15.80;7.55;;;;;;;;;;5011798;28;20061;-34
2022/03/10 08:48:49;;;;;;;18.35;8.43;;;;;;;;;;5012606;28;20026;-34
2022/03/10 08:51:16;;;;;;;18.33;7.55;;;;;;;;;;5012188;28;20129;-34
2022/03/10 08:53:42;;;;;;;15.40;7.13;;;;;;;;;;5011924;28;20033;-34
2022/03/10 08:56:10;;;;;;;16.80;7.57;;;;;;;;;;5012357;28;20112;-34
2022/03/10 08:58:37;;;;;;;16.50;6.80;;;;;;;;;;5011676;28;20042;-34
2022/03/10 09:01:04;;;;;;;15.80;7.57;;;;;;;;;;5012352;28;20033;-34
2022/03/10 09:03:31;;;;;;;19.08;7.22;;;;;;;;;;5013555;28;20108;-34
2022/03/10 09:05:58;;;;;;;13.60;6.60;;;;;;;;;;5015889;28;20033;-34
2022/03/10 09:08:25;;;;;;;12.35;6.13;;;;;;;;;;5015723;28;20025;-34
2022/03/10 09:10:52;;;;;;;14.18;7.28;;;;;;;;;;5016227;28;20636;-34
2022/03/10 09:13:19;;;;;;;13.88;6.68;;;;;;;;;;5015948;28;20057;-34
2022/03/10 09:15:46;;;;;;;16.45;6.82;;;;;;;;;;5015976;28;20109;-33
2022/03/10 09:18:14;;;;;;;14.40;6.50;;;;;;;;;;5016314;28;20050;-34
2022/03/10 09:20:40;;;;;;;16.17;6.53;;;;;;;;;;5015421;28;20558;-34
2022/03/10 09:23:08;;;;;;;13.32;6.68;;;;;;;;;;5015959;28;20034;-33
2022/03/10 09:25:35;;;;;;;14.68;6.13;;;;;;;;;;4997873;28;20053;-34
2022/03/10 09:28:02;;;;;;;14.75;6.50;;;;;;;;;;5016123;28;20101;-34
2022/03/10 09:30:29;;;;;;;12.07;6.32;;;;;;;;;;5015444;28;20039;-34
2022/03/10 09:32:57;;;;;;;19.05;6.10;;;;;;;;;;5015720;28;20042;-34
2022/03/10 09:35:25;;;;;;;11.68;6.28;;;;;;;;;;5015667;28;20033;-34
2022/03/10 09:37:52;;;;;;;12.43;5.60;;;;;;;;;;5015386;28;20037;-33
2022/03/10 09:40:20;;;;;;;12.20;5.75;;;;;;;;;;5015433;28;20392;-34
2022/03/10 09:42:49;;;;;;;12.75;5.70;;;;;;;;;;5014885;28;20033;-34
2022/03/10 09:45:17;;;;;;;13.90;5.85;;;;;;;;;;5015509;28;20065;-33
2022/03/10 09:47:45;;;;;;;14.23;5.85;;;;;;;;;;5015284;28;20073;-34
2022/03/10 09:50:13;;;;;;;11.52;5.57;;;;;;;;;;5014360;28;20397;-34
2022/03/10 09:52:41;;;;;;;13.32;5.88;;;;;;;;;;5015614;28;20034;-34
2022/03/10 09:55:08;;;;;;;11.95;5.85;;;;;;;;;;5014938;28;20030;-34
2022/03/10 09:57:38;;;;;;;12.15;5.72;;;;;;;;;;4997866;28;20072;-34
2022/03/10 10:00:06;;;;;;;12.20;5.40;;;;;;;;;;4997096;28;20365;-34
2022/03/10 10:02:34;;;;;;;14.40;5.75;;;;;;;;;;5014632;28;20033;-34
2022/03/10 10:05:01;;;;;;;13.38;5.57;;;;;;;;;;5014869;28;20037;-34
2022/03/10 10:07:29;;;;;;;12.52;5.55;;;;;;;;;;5014926;28;20642;-34
2022/03/10 10:09:58;;;;;;;12.40;5.55;;;;;;;;;;5015412;28;20038;-34
2022/03/10 10:12:27;;;;;;;9.02;4.65;;;;;;;;;;5014512;28;20096;-34
2022/03/10 10:14:54;;;;;;;10.73;5.00;;;;;;;;;;5015100;28;20030;-34
2022/03/10 10:17:33;;;;;;;12.10;5.55;;;;;;;;;;5014855;28;20061;-34
2022/03/10 10:20:01;;;;;;;12.77;4.97;;;;;;;;;;5014732;28;20080;-34
2022/03/10 10:22:29;;;;;;;11.55;5.30;;;;;;;;;;5014699;28;20034;-34
2022/03/10 10:25:02;;;;;;;15.20;5.75;;;;;;;;;;4996877;28;20387;-34
2022/03/10 10:27:32;;;;;;;14.40;5.35;;;;;;;;;;5014875;28;20060;-34
2022/03/10 10:30:00;;;;;;;10.73;4.45;;;;;;;;;;5014416;28;20109;-34
2022/03/10 10:32:50;;;;;;;11.57;4.97;;;;;;;;;;5014359;28;20026;-34
2022/03/10 10:35:21;;;;;;;10.93;4.82;;;;;;;;;;4997766;28;20085;-34
2022/03/10 10:37:50;;;;;;;8.67;4.30;;;;;;;;;;5015780;28;20033;-34
2022/03/10 10:40:21;;;;;;;11.95;4.93;;;;;;;;;;5014746;28;20445;-34
2022/03/10 10:42:48;;;;;;;9.45;4.50;;;;;;;;;;5014357;28;20036;-34
2022/03/10 10:45:31;;;;;;;12.18;4.93;;;;;;;;;;5013691;28;20041;-34
2022/03/10 10:48:18;;;;;;;12.75;4.57;;;;;;;;;;5008014;28;20432;-33
2022/03/10 10:50:45;;;;;;;9.35;4.50;;;;;;;;;;5012093;28;20104;-33
2022/03/10 10:53:32;;;;;;;12.20;5.07;;;;;;;;;;5014330;28;20092;-32
2022/03/10 10:55:59;;;;;;;11.10;5.18;;;;;;;;;;5005178;28;20034;-33
2022/03/10 10:58:27;;;;;;;8.25;4.70;;;;;;;;;;5004036;28;20048;-34
2022/03/10 11:00:54;;;;;;;11.10;4.78;;;;;;;;;;5012111;28;20029;-34
2022/03/10 11:03:22;;;;;;;11.82;4.63;;;;;;;;;;5012552;28;20030;-33
2022/03/10 11:05:49;;;;;;;9.30;4.53;;;;;;;;;;5012201;28;20034;-36
2022/03/10 11:08:20;;;;;;;11.65;4.07;;;;;;;;;;5012469;28;20033;-33
2022/03/10 11:10:47;;;;;;;12.40;4.68;;;;;;;;;;5012051;28;20492;-33
2022/03/10 11:13:14;;;;;;;14.20;4.55;;;;;;;;;;5012467;28;20042;-33
2022/03/10 11:15:46;;;;;;;12.73;4.45;;;;;;;;;;5013353;28;20029;-33
2022/03/10 11:18:16;;;;;;;8.57;4.30;;;;;;;;;;5013117;28;20048;-32
2022/03/10 11:20:44;;;;;;;9.82;4.10;;;;;;;;;;5011883;28;20049;-32
2022/03/10 11:23:23;;;;;;;11.20;4.22;;;;;;;;;;5013745;28;20034;-33
2022/03/10 11:26:10;;;;;;;8.80;4.38;;;;;;;;;;5012090;28;20045;-32
2022/03/10 11:28:42;;;;;;;8.18;3.55;;;;;;;;;;4996094;28;20048;-32
2022/03/10 11:31:10;;;;;;;10.48;3.95;;;;;;;;;;5011848;28;20116;-34
2022/03/10 11:33:38;;;;;;;6.32;3.20;;;;;;;;;;5012620;28;20053;-34
2022/03/10 11:36:23;;;;;;;11.60;3.72;;;;;;;;;;5013187;28;20084;-31
2022/03/10 11:38:58;;;;;;;11.35;3.80;;;;;;;;;;5012332;28;20034;-32
2022/03/10 11:41:29;;;;;;;8.60;3.65;;;;;;;;;;5013183;28;20571;-32
2022/03/10 11:43:58;;;;;;;8.02;3.45;;;;;;;;;;5012991;28;20033;-32
2022/03/10 11:46:26;;;;;;;12.63;4.00;;;;;;;;;;5012732;28;20048;-32
2022/03/10 11:49:06;;;;;;;11.75;3.97;;;;;;;;;;5012125;28;20064;-32
2022/03/10 11:51:44;;;;;;;12.02;4.03;;;;;;;;;;5001304;28;20042;-33
2022/03/10 11:54:11;;;;;;;14.75;4.55;;;;;;;;;;4993460;28;20504;-33
2022/03/10 11:56:44;;;;;;;9.60;3.47;;;;;;;;;;5008130;28;20038;-33
2022/03/10 11:59:18;;;;;;;10.18;4.03;;;;;;;;;;4993152;28;20030;-33
2022/03/10 12:01:45;;;;;;;22.98;6.20;;;;;;;;;;4992860;28;20045;-34
2022/03/10 12:04:17;;;;;;;22.20;5.57;;;;;;;;;;4974895;28;20396;-32
2022/03/10 12:06:57;;;;;;;16.20;2.72;;;;;;;;;;4993139;28;20129;-32
2022/03/10 12:09:36;;;;;;;23.88;2.50;;;;;;;;;;4992938;28;20029;-31
2022/03/10 12:12:32;;;;;;;13.00;2.22;;;;;;;;;;4992604;28;20045;-31
2022/03/10 12:15:19;;;;;;;13.73;2.25;;;;;;;;;;4986298;28;20037;-30
2022/03/10 12:17:45;;;;;;;14.80;2.30;;;;;;;;;;5011933;28;20076;-31
2022/03/10 12:20:23;;;;;;;59.75;6.30;;;;;;;;;;5018281;28;20399;-31
2022/03/10 12:23:16;;;;;;;13.82;3.03;;;;;;;;;;5011676;28;20033;-31
2022/03/10 12:25:47;;;;;;;14.23;2.90;;;;;;;;;;5008145;28;20488;-30
2022/03/10 12:28:25;;;;;;;15.25;4.28;;;;;;;;;;5012191;28;20034;-30
2022/03/10 12:31:12;;;;;;;12.20;3.17;;;;;;;;;;5011942;28;20072;-30
2022/03/10 12:33:49;;;;;;;16.08;3.65;;;;;;;;;;5011582;28;20048;-31
2022/03/10 12:36:26;;;;;;;15.85;3.25;;;;;;;;;;5011139;28;20072;-30
2022/03/10 12:38:53;;;;;;;153.38;18.33;;;;;;;;;;5011059;28;20025;-30
2022/03/10 12:41:20;;;;;;;31.60;6.75;;;;;;;;;;5010885;28;20065;-30
2022/03/10 12:43:54;;;;;;;15.50;4.97;;;;;;;;;;4994014;28;20497;-30
2022/03/10 12:46:21;;;;;;;21.77;4.85;;;;;;;;;;5011722;28;20022;-32
2022/03/10 12:48:52;;;;;;;25.05;6.38;;;;;;;;;;5011608;28;20038;-33
2022/03/10 12:51:26;;;;;;;25.63;8.65;;;;;;;;;;5008739;28;20034;-35
2022/03/10 12:53:54;;;;;;;20.83;5.45;;;;;;;;;;5010876;28;20476;-34
2022/03/10 12:56:21;;;;;;;19.52;4.55;;;;;;;;;;5011352;28;20076;-34
2022/03/10 12:58:50;;;;;;;22.63;5.25;;;;;;;;;;5011246;28;20022;-34
2022/03/10 13:01:17;;;;;;;15.15;3.80;;;;;;;;;;5010486;28;20539;-34
2022/03/10 13:03:47;;;;;;;13.32;4.07;;;;;;;;;;5011827;28;20100;-34
2022/03/10 13:06:14;;;;;;;11.90;3.08;;;;;;;;;;5011605;28;20097;-34
2022/03/10 13:08:45;;;;;;;99.55;10.07;;;;;;;;;;5010790;28;20022;-34
2022/03/10 13:11:12;;;;;;;20.23;4.93;;;;;;;;;;4994425;28;20022;-34
2022/03/10 13:13:39;;;;;;;20.42;3.85;;;;;;;;;;5011027;28;20026;-33
2022/03/10 13:16:06;;;;;;;46.22;5.20;;;;;;;;;;5011331;28;20655;-34
2022/03/10 13:18:43;;;;;;;11.68;2.40;;;;;;;;;;5011258;28;20030;-34
2022/03/10 13:21:10;;;;;;;8.50;1.65;;;;;;;;;;5011092;28;20029;-34
2022/03/10 13:23:37;;;;;;;17.00;2.53;;;;;;;;;;5011409;28;20022;-33
2022/03/10 13:26:07;;;;;;;10.60;2.38;;;;;;;;;;5011086;28;20083;-34
2022/03/10 13:28:34;;;;;;;15.15;2.05;;;;;;;;;;5011270;28;20464;-34
2022/03/10 13:31:01;;;;;;;8.25;1.75;;;;;;;;;;5010997;28;20014;-34
2022/03/10 13:33:28;;;;;;;14.90;2.20;;;;;;;;;;5011036;28;20113;-34
2022/03/10 13:35:57;;;;;;;10.70;1.50;;;;;;;;;;5011725;28;20100;-34
2022/03/10 13:38:28;;;;;;;18.88;2.33;;;;;;;;;;5010500;28;20553;-34
2022/03/10 13:41:06;;;;;;;12.68;1.90;;;;;;;;;;5011131;28;20073;-34
2022/03/10 13:43:34;;;;;;;49.63;4.72;;;;;;;;;;5011094;28;20021;-34
2022/03/10 13:46:11;;;;;;;39.05;4.03;;;;;;;;;;5010770;28;20018;-35
2022/03/10 13:48:44;;;;;;;10.05;1.92;;;;;;;;;;5011391;28;20022;-34
2022/03/10 13:51:12;;;;;;;11.65;1.90;;;;;;;;;;5014586;28;20473;-34
2022/03/10 13:53:39;;;;;;;18.65;2.25;;;;;;;;;;5014058;28;20544;-34
2022/03/10 13:56:06;;;;;;;22.52;1.88;;;;;;;;;;5015100;28;20491;-34
2022/03/10 13:58:33;;;;;;;21.15;2.58;;;;;;;;;;5014544;28;20014;-34
2022/03/10 14:01:06;;;;;;;13.73;1.70;;;;;;;;;;5013889;28;20025;-34
2022/03/10 14:03:34;;;;;;;14.05;2.20;;;;;;;;;;5014728;28;20053;-33
2022/03/10 14:06:02;;;;;;;19.50;2.83;;;;;;;;;;5014637;28;20033;-36
2022/03/10 14:08:29;;;;;;;17.65;2.53;;;;;;;;;;5014085;28;20029;-36
2022/03/10 14:10:59;;;;;;;14.02;1.90;;;;;;;;;;5014146;28;20026;-36
2022/03/10 14:13:36;;;;;;;13.20;1.83;;;;;;;;;;5014357;28;20499;-35
2022/03/10 14:16:04;;;;;;;15.45;1.85;;;;;;;;;;5013822;28;20018;-35
2022/03/10 14:18:31;;;;;;;10.75;2.50;;;;;;;;;;5014514;28;20080;-35
2022/03/10 14:21:06;;;;;;;10.88;2.65;;;;;;;;;;5014152;28;20018;-35
2022/03/10 14:23:33;;;;;;;7.97;1.73;;;;;;;;;;5013795;28;20034;-35
2022/03/10 14:26:01;;;;;;;20.33;2.80;;;;;;;;;;5014386;28;20413;-35
2022/03/10 14:28:31;;;;;;;20.52;2.28;;;;;;;;;;5013779;28;20025;-35
2022/03/10 14:30:58;;;;;;;31.77;2.88;;;;;;;;;;5014048;28;20088;-35
2022/03/10 14:33:25;;;;;;;5.35;0.93;;;;;;;;;;5014269;28;20029;-35
2022/03/10 14:35:52;;;;;;;6.43;1.30;;;;;;;;;;5013519;28;20115;-36